createdAt,value
2019-01-08T00:00:37.388Z,29.37
2019-01-08T00:05:35.005Z,31.93
2019-01-08T00:10:32.398Z,28.93
2019-01-08T00:15:29.284Z,28.07
2019-01-08T00:20:26.240Z,32.80
2019-01-08T00:25:23.159Z,28.67
2019-01-08T00:30:20.070Z,31.63
2019-01-08T00:35:16.961Z,29.57
2019-01-08T00:40:14.319Z,28.43
2019-01-08T00:45:11.201Z,38.37
2019-01-08T00:50:08.203Z,37.50
2019-01-08T00:55:05.105Z,35.87
2019-01-08T01:00:02.855Z,40.93
2019-01-08T01:05:00.194Z,32.27
2019-01-08T01:09:57.111Z,32.83
2019-01-08T01:14:54.025Z,32.97
2019-01-08T01:19:50.989Z,29.63
2019-01-08T01:24:47.902Z,40.57
2019-01-08T01:29:44.872Z,36.60
2019-01-08T01:34:41.755Z,32.50
2019-01-08T01:39:39.073Z,35.80
2019-01-08T01:44:36.039Z,34.40
2019-01-08T01:49:32.958Z,44.17
2019-01-08T01:54:29.920Z,34.30
2019-01-08T01:59:26.874Z,36.80
2019-01-08T02:04:23.784Z,90.57
2019-01-08T02:09:20.741Z,88.30
2019-01-08T02:14:17.636Z,84.70
2019-01-08T02:19:14.573Z,71.63
2019-01-08T02:24:11.491Z,59.57
2019-01-08T02:29:16.354Z,40.67
2019-01-08T02:34:07.227Z,48.27
2019-01-08T02:39:05.151Z,48.87
2019-01-08T02:44:02.460Z,28.27
2019-01-08T02:48:59.555Z,26.40
2019-01-08T02:53:56.441Z,26.93
2019-01-08T02:58:53.371Z,22.90
2019-01-08T03:03:50.279Z,25.03
2019-01-08T03:08:47.198Z,24.10
2019-01-08T03:13:44.119Z,26.17
2019-01-08T03:18:41.048Z,23.00
2019-01-08T03:23:37.939Z,24.17
2019-01-08T03:28:34.875Z,22.17
2019-01-08T03:33:31.760Z,21.37
2019-01-08T03:38:28.680Z,21.07
2019-01-08T03:43:25.571Z,22.43
2019-01-08T03:48:22.468Z,22.43
2019-01-08T03:53:19.457Z,21.67
2019-01-08T03:58:16.392Z,19.30
2019-01-08T04:03:13.340Z,20.90
2019-01-08T04:08:10.253Z,20.00
2019-01-08T04:13:07.142Z,20.03
2019-01-08T04:18:05.030Z,20.60
2019-01-08T04:23:01.924Z,19.67
2019-01-08T04:27:58.842Z,18.83
2019-01-08T04:32:55.728Z,20.73
2019-01-08T04:37:52.647Z,19.17
2019-01-08T04:42:49.533Z,20.77
2019-01-08T04:47:46.451Z,19.53
2019-01-08T04:52:43.334Z,19.83
2019-01-08T04:57:40.263Z,20.93
2019-01-08T05:02:37.138Z,19.57
2019-01-08T05:07:34.056Z,20.60
2019-01-08T05:12:30.949Z,20.83
2019-01-08T05:17:27.891Z,20.50
2019-01-08T05:22:25.193Z,21.23
2019-01-08T05:27:22.104Z,21.63
2019-01-08T05:32:18.994Z,21.00
2019-01-08T05:37:16.036Z,21.23
2019-01-08T05:42:13.054Z,18.47
2019-01-08T05:47:09.994Z,18.17
2019-01-08T05:52:06.928Z,19.67
2019-01-08T05:57:03.849Z,20.70
2019-01-08T06:02:00.749Z,19.10
2019-01-08T06:06:57.725Z,20.17
2019-01-08T06:11:54.654Z,20.40
2019-01-08T06:16:51.578Z,21.50
2019-01-08T06:21:48.462Z,22.70
2019-01-08T06:26:45.936Z,20.00
2019-01-08T06:31:42.850Z,23.20
2019-01-08T06:36:39.809Z,20.53
2019-01-08T06:41:36.696Z,19.93
2019-01-08T06:46:33.610Z,19.13
2019-01-08T06:51:30.495Z,22.93
2019-01-08T06:56:27.439Z,19.27
2019-01-08T07:01:24.336Z,20.83
2019-01-08T07:06:21.245Z,19.63
2019-01-08T07:11:18.149Z,19.80
2019-01-08T07:16:15.087Z,20.90
2019-01-08T07:21:11.972Z,19.27
2019-01-08T07:26:08.910Z,19.00
2019-01-08T07:31:05.933Z,20.23
2019-01-08T07:36:02.855Z,19.57
2019-01-08T07:40:59.742Z,21.90
2019-01-08T07:45:56.671Z,21.80
2019-01-08T07:50:53.593Z,22.67
2019-01-08T07:55:54.192Z,20.97
2019-01-08T08:00:51.097Z,22.50
2019-01-08T08:05:48.014Z,20.77
2019-01-08T08:10:45.018Z,17.73
2019-01-08T08:15:41.954Z,22.37
2019-01-08T08:20:38.902Z,24.70
2019-01-08T08:25:35.808Z,25.07
2019-01-08T08:30:32.738Z,23.87
2019-01-08T08:35:29.716Z,24.20
2019-01-08T08:40:26.633Z,26.90
2019-01-08T08:45:23.670Z,20.73
2019-01-08T08:50:20.573Z,20.43
2019-01-08T08:55:17.580Z,22.67
2019-01-08T09:00:14.489Z,20.30
2019-01-08T09:05:11.518Z,26.17
2019-01-08T09:10:08.412Z,26.13
2019-01-08T09:15:05.423Z,18.17
2019-01-08T09:20:02.919Z,19.57
2019-01-08T09:24:59.868Z,18.77
2019-01-08T09:29:56.757Z,20.40
2019-01-08T09:34:53.768Z,21.53
2019-01-08T09:39:51.570Z,21.13
2019-01-08T09:44:48.456Z,20.27
2019-01-08T09:49:45.393Z,22.93
2019-01-08T09:54:42.287Z,19.83
2019-01-08T09:59:39.217Z,22.80
2019-01-08T10:04:36.117Z,22.43
2019-01-08T10:09:33.024Z,22.00
2019-01-08T10:14:29.909Z,20.30
2019-01-08T10:19:26.847Z,22.80
2019-01-08T10:24:23.759Z,23.07
2019-01-08T10:29:20.931Z,22.90
2019-01-08T10:34:18.059Z,23.77
2019-01-08T10:39:15.087Z,25.27
2019-01-08T10:44:12.095Z,26.10
2019-01-08T10:49:09.014Z,25.37
2019-01-08T10:54:05.905Z,26.53
2019-01-08T10:59:07.595Z,24.07
2019-01-08T11:04:01.679Z,22.97
2019-01-08T11:08:58.681Z,22.90
2019-01-08T11:13:55.573Z,23.20
2019-01-08T11:18:52.496Z,24.20
2019-01-08T11:23:49.392Z,25.30
2019-01-08T11:28:46.319Z,19.33
2019-01-08T11:33:43.196Z,22.63
2019-01-08T11:38:40.122Z,19.83
2019-01-08T11:43:37.021Z,23.93
2019-01-08T11:48:33.985Z,18.03
2019-01-08T11:53:30.883Z,24.37
2019-01-08T11:58:27.806Z,20.50
2019-01-08T12:03:24.683Z,21.53
2019-01-08T12:08:21.602Z,24.20
2019-01-08T12:13:18.498Z,28.73
2019-01-08T12:18:15.421Z,21.87
2019-01-08T12:23:12.318Z,20.67
2019-01-08T12:28:09.256Z,26.23
2019-01-08T12:33:06.146Z,19.27
2019-01-08T12:38:03.123Z,19.90
2019-01-08T12:43:00.130Z,19.90
2019-01-08T12:47:57.066Z,19.83
2019-01-08T12:52:54.000Z,21.07
2019-01-08T12:57:51.472Z,23.83
2019-01-08T13:02:48.351Z,16.83
2019-01-08T13:07:45.261Z,21.57
2019-01-08T13:12:42.162Z,18.77
2019-01-08T13:17:39.103Z,24.80
2019-01-08T13:22:35.984Z,46.77
2019-01-08T13:27:32.892Z,31.17
2019-01-08T13:32:29.791Z,34.33
2019-01-08T13:37:26.705Z,20.07
2019-01-08T13:42:23.595Z,21.13
2019-01-08T13:47:20.511Z,20.77
2019-01-08T13:52:17.548Z,18.57
2019-01-08T13:57:14.998Z,21.07
2019-01-08T14:02:11.901Z,20.53
2019-01-08T14:07:08.919Z,22.13
2019-01-08T14:12:05.823Z,20.97
2019-01-08T14:17:02.762Z,18.77
2019-01-08T14:21:59.641Z,20.33
2019-01-08T14:26:56.566Z,21.07
2019-01-08T14:31:53.451Z,19.47
2019-01-08T14:36:50.378Z,19.83
2019-01-08T14:41:47.311Z,21.97
2019-01-08T14:46:44.268Z,23.10
2019-01-08T14:51:41.152Z,36.87
2019-01-08T14:56:38.267Z,21.13
2019-01-08T15:01:36.070Z,28.57
2019-01-08T15:06:33.194Z,26.30
2019-01-08T15:11:30.077Z,25.07
2019-01-08T15:16:27.032Z,27.57
2019-01-08T15:21:23.919Z,26.00
2019-01-08T15:26:20.874Z,22.93
2019-01-08T15:31:17.870Z,22.30
2019-01-08T15:36:14.940Z,21.60
2019-01-08T15:41:11.935Z,23.10
2019-01-08T15:46:08.858Z,20.57
2019-01-08T15:51:05.787Z,21.37
2019-01-08T15:56:02.843Z,20.37
2019-01-08T16:00:59.742Z,20.67
2019-01-08T16:05:57.961Z,18.63
2019-01-08T16:10:54.845Z,20.70
2019-01-08T16:15:51.760Z,19.50
2019-01-08T16:20:48.644Z,20.00
2019-01-08T16:25:45.570Z,19.27
2019-01-08T16:30:42.514Z,21.40
2019-01-08T16:35:39.481Z,19.37
2019-01-08T16:40:36.358Z,21.10
2019-01-08T16:45:33.277Z,20.70
2019-01-08T16:50:30.257Z,20.37
2019-01-08T16:55:27.192Z,21.30
2019-01-08T17:00:24.422Z,22.60
2019-01-08T17:05:21.387Z,21.57
2019-01-08T17:10:19.376Z,24.20
2019-01-08T17:15:16.584Z,21.93
2019-01-08T17:20:13.690Z,22.40
2019-01-08T17:25:10.663Z,23.97
2019-01-08T17:30:09.042Z,22.70
2019-01-08T17:35:06.066Z,21.43
2019-01-08T17:40:04.267Z,22.40
2019-01-08T17:45:01.186Z,21.90
2019-01-08T17:49:58.099Z,22.47
2019-01-08T17:54:55.025Z,22.60
2019-01-08T17:59:51.946Z,23.30
2019-01-08T18:04:48.849Z,20.80
2019-01-08T18:09:45.854Z,20.70
2019-01-08T18:14:43.633Z,26.50
2019-01-08T18:19:40.516Z,22.07
2019-01-08T18:24:37.570Z,21.57
2019-01-08T18:29:34.447Z,21.30
2019-01-08T18:34:31.377Z,23.87
2019-01-08T18:39:28.359Z,22.00
2019-01-08T18:44:25.320Z,23.67
2019-01-08T18:49:22.283Z,24.70
2019-01-08T18:54:19.454Z,22.07
2019-01-08T18:59:16.358Z,24.80
2019-01-08T19:04:13.278Z,23.67
2019-01-08T19:09:29.881Z,20.57
2019-01-08T19:14:34.045Z,23.93
2019-01-08T19:19:31.080Z,23.73
2019-01-08T19:24:29.089Z,22.80
2019-01-08T19:29:25.982Z,21.97
2019-01-08T19:34:23.180Z,23.07
2019-01-08T19:39:20.277Z,22.73
2019-01-08T19:44:17.443Z,22.23
2019-01-08T19:49:14.402Z,21.37
2019-01-08T19:54:11.452Z,23.47
2019-01-08T19:59:08.365Z,23.53
2019-01-08T20:04:05.313Z,23.73
2019-01-08T20:09:03.699Z,21.63
2019-01-08T20:14:00.635Z,22.27
2019-01-08T20:18:57.520Z,24.33
2019-01-08T20:23:54.710Z,25.67
2019-01-08T20:28:51.649Z,22.83
2019-01-08T20:33:48.608Z,23.83
2019-01-08T20:38:45.504Z,24.03
2019-01-08T20:43:42.434Z,23.57
2019-01-08T20:48:39.357Z,21.30
2019-01-08T20:53:36.839Z,20.57
2019-01-08T20:58:33.724Z,22.17
2019-01-08T21:03:30.785Z,21.10
2019-01-08T21:08:27.697Z,21.80
2019-01-08T21:13:25.240Z,22.47
2019-01-08T21:18:22.162Z,19.97
2019-01-08T21:23:19.420Z,18.30
2019-01-08T21:28:16.754Z,20.87
2019-01-08T21:33:13.888Z,20.37
2019-01-08T21:38:10.786Z,23.73
2019-01-08T21:43:07.807Z,22.00
2019-01-08T21:48:04.698Z,19.40
2019-01-08T21:53:01.614Z,21.90
2019-01-08T21:57:58.513Z,21.13
2019-01-08T22:02:55.418Z,22.97
2019-01-08T22:07:52.305Z,22.90
2019-01-08T22:12:49.261Z,21.63
2019-01-08T22:17:46.163Z,21.03
2019-01-08T22:22:43.072Z,20.87
2019-01-08T22:27:39.956Z,21.57
2019-01-08T22:32:38.082Z,19.03
2019-01-08T22:37:34.965Z,21.87
2019-01-08T22:42:31.985Z,23.53
2019-01-08T22:47:28.880Z,29.53
2019-01-08T22:52:25.901Z,23.70
2019-01-08T22:57:22.780Z,21.53
2019-01-08T23:02:19.789Z,22.80
2019-01-08T23:07:16.707Z,22.07
2019-01-08T23:12:13.698Z,20.63
2019-01-08T23:17:10.584Z,18.80
2019-01-08T23:22:07.516Z,19.40
2019-01-08T23:27:04.376Z,22.07
2019-01-08T23:32:01.330Z,19.33
2019-01-08T23:36:58.664Z,22.60
2019-01-08T23:41:55.578Z,20.67
2019-01-08T23:46:52.456Z,21.93
2019-01-08T23:51:54.800Z,20.40
2019-01-08T23:56:52.533Z,21.63
